sensor_id;sensor_type;location;lat;lon;timestamp;temperature;humidity
19870;DHT22;10097;50.862;4.696;2022-07-29T00:00:35;20.20;99.90
19870;DHT22;10097;50.862;4.696;2022-07-29T00:03:02;20.30;99.90
19870;DHT22;10097;50.862;4.696;2022-07-29T00:05:27;20.40;99.90
19870;DHT22;10097;50.862;4.696;2022-07-29T00:07:53;20.40;99.90
19870;DHT22;10097;50.862;4.696;2022-07-29T00:10:19;20.40;99.90
19870;DHT22;10097;50.862;4.696;2022-07-29T00:12:45;20.30;99.90
19870;DHT22;10097;50.862;4.696;2022-07-29T00:15:11;20.30;99.90
19870;DHT22;10097;50.862;4.696;2022-07-29T00:17:36;20.30;99.90
19870;DHT22;10097;50.862;4.696;2022-07-29T00:20:03;20.00;99.90
19870;DHT22;10097;50.862;4.696;2022-07-29T00:22:29;20.10;99.90
19870;DHT22;10097;50.862;4.696;2022-07-29T00:24:55;20.10;99.90
19870;DHT22;10097;50.862;4.696;2022-07-29T00:27:21;20.00;99.90
19870;DHT22;10097;50.862;4.696;2022-07-29T00:29:47;20.00;99.90
19870;DHT22;10097;50.862;4.696;2022-07-29T00:32:12;20.00;99.90
19870;DHT22;10097;50.862;4.696;2022-07-29T00:34:38;20.00;99.90
19870;DHT22;10097;50.862;4.696;2022-07-29T00:37:23;19.80;99.90
19870;DHT22;10097;50.862;4.696;2022-07-29T00:39:48;19.80;99.90
19870;DHT22;10097;50.862;4.696;2022-07-29T00:42:14;19.90;99.90
19870;DHT22;10097;50.862;4.696;2022-07-29T00:44:40;19.80;99.90
19870;DHT22;10097;50.862;4.696;2022-07-29T00:47:07;19.60;99.90
19870;DHT22;10097;50.862;4.696;2022-07-29T00:49:34;19.50;99.90
19870;DHT22;10097;50.862;4.696;2022-07-29T00:52:05;19.50;99.90
19870;DHT22;10097;50.862;4.696;2022-07-29T00:54:31;19.40;99.90
19870;DHT22;10097;50.862;4.696;2022-07-29T00:57:01;19.40;99.90
19870;DHT22;10097;50.862;4.696;2022-07-29T00:59:27;19.40;99.90
19870;DHT22;10097;50.862;4.696;2022-07-29T01:01:54;19.30;99.90
19870;DHT22;10097;50.862;4.696;2022-07-29T01:04:21;19.40;99.90
19870;DHT22;10097;50.862;4.696;2022-07-29T01:06:50;19.50;99.90
19870;DHT22;10097;50.862;4.696;2022-07-29T01:09:17;19.60;99.90
19870;DHT22;10097;50.862;4.696;2022-07-29T01:11:44;19.50;99.90
19870;DHT22;10097;50.862;4.696;2022-07-29T01:14:11;19.40;99.90
19870;DHT22;10097;50.862;4.696;2022-07-29T01:16:45;19.30;99.90
19870;DHT22;10097;50.862;4.696;2022-07-29T01:19:58;19.20;99.90
19870;DHT22;10097;50.862;4.696;2022-07-29T01:28:01;19.20;99.90
19870;DHT22;10097;50.862;4.696;2022-07-29T01:30:30;19.10;99.90
19870;DHT22;10097;50.862;4.696;2022-07-29T01:33:03;19.00;99.90
19870;DHT22;10097;50.862;4.696;2022-07-29T01:35:36;19.00;99.90
19870;DHT22;10097;50.862;4.696;2022-07-29T01:38:13;18.90;99.90
19870;DHT22;10097;50.862;4.696;2022-07-29T01:40:45;18.80;99.90
19870;DHT22;10097;50.862;4.696;2022-07-29T01:43:17;18.90;99.90
19870;DHT22;10097;50.862;4.696;2022-07-29T01:46:01;19.00;99.90
19870;DHT22;10097;50.862;4.696;2022-07-29T01:53:55;18.90;99.90
19870;DHT22;10097;50.862;4.696;2022-07-29T01:56:24;18.90;99.90
19870;DHT22;10097;50.862;4.696;2022-07-29T01:58:55;18.90;99.90
19870;DHT22;10097;50.862;4.696;2022-07-29T02:01:24;18.80;99.90
19870;DHT22;10097;50.862;4.696;2022-07-29T02:03:51;18.80;99.90
19870;DHT22;10097;50.862;4.696;2022-07-29T02:06:19;18.60;99.90
19870;DHT22;10097;50.862;4.696;2022-07-29T02:08:47;18.60;99.90
19870;DHT22;10097;50.862;4.696;2022-07-29T02:11:13;18.40;99.90
19870;DHT22;10097;50.862;4.696;2022-07-29T02:13:39;18.40;99.90
19870;DHT22;10097;50.862;4.696;2022-07-29T02:16:06;18.40;99.90
19870;DHT22;10097;50.862;4.696;2022-07-29T02:18:38;18.40;99.90
19870;DHT22;10097;50.862;4.696;2022-07-29T02:21:06;18.50;99.90
19870;DHT22;10097;50.862;4.696;2022-07-29T02:23:33;18.40;99.90
19870;DHT22;10097;50.862;4.696;2022-07-29T02:26:00;18.40;99.90
19870;DHT22;10097;50.862;4.696;2022-07-29T02:28:29;18.40;99.90
19870;DHT22;10097;50.862;4.696;2022-07-29T02:30:58;18.30;99.90
19870;DHT22;10097;50.862;4.696;2022-07-29T02:33:25;18.30;99.90
19870;DHT22;10097;50.862;4.696;2022-07-29T02:35:52;18.30;99.90
19870;DHT22;10097;50.862;4.696;2022-07-29T02:38:18;18.30;99.90
19870;DHT22;10097;50.862;4.696;2022-07-29T02:41:08;18.30;99.90
19870;DHT22;10097;50.862;4.696;2022-07-29T02:43:35;18.20;99.90
19870;DHT22;10097;50.862;4.696;2022-07-29T02:46:03;18.20;99.90
19870;DHT22;10097;50.862;4.696;2022-07-29T02:48:36;18.20;99.90
19870;DHT22;10097;50.862;4.696;2022-07-29T02:51:10;18.10;99.90
19870;DHT22;10097;50.862;4.696;2022-07-29T02:53:38;18.00;99.90
19870;DHT22;10097;50.862;4.696;2022-07-29T02:56:27;18.00;99.90
19870;DHT22;10097;50.862;4.696;2022-07-29T02:58:58;17.90;99.90
19870;DHT22;10097;50.862;4.696;2022-07-29T03:01:30;17.90;99.90
19870;DHT22;10097;50.862;4.696;2022-07-29T03:04:00;17.80;99.90
19870;DHT22;10097;50.862;4.696;2022-07-29T03:06:27;17.70;99.90
19870;DHT22;10097;50.862;4.696;2022-07-29T03:08:55;17.60;99.90
19870;DHT22;10097;50.862;4.696;2022-07-29T03:11:21;17.60;99.90
19870;DHT22;10097;50.862;4.696;2022-07-29T03:13:48;17.60;99.90
19870;DHT22;10097;50.862;4.696;2022-07-29T03:16:15;17.60;99.90
19870;DHT22;10097;50.862;4.696;2022-07-29T03:18:41;17.50;99.90
19870;DHT22;10097;50.862;4.696;2022-07-29T03:21:08;17.50;99.90
19870;DHT22;10097;50.862;4.696;2022-07-29T03:23:34;17.30;99.90
19870;DHT22;10097;50.862;4.696;2022-07-29T03:25:59;17.20;99.90
19870;DHT22;10097;50.862;4.696;2022-07-29T03:28:25;17.20;99.90
19870;DHT22;10097;50.862;4.696;2022-07-29T03:30:53;17.20;99.90
19870;DHT22;10097;50.862;4.696;2022-07-29T03:33:18;17.30;99.90
19870;DHT22;10097;50.862;4.696;2022-07-29T03:35:44;17.30;99.90
19870;DHT22;10097;50.862;4.696;2022-07-29T03:38:10;17.30;99.90
19870;DHT22;10097;50.862;4.696;2022-07-29T03:40:49;17.20;99.90
19870;DHT22;10097;50.862;4.696;2022-07-29T03:43:17;17.20;99.90
19870;DHT22;10097;50.862;4.696;2022-07-29T03:45:47;17.20;99.90
19870;DHT22;10097;50.862;4.696;2022-07-29T03:48:15;17.00;99.90
19870;DHT22;10097;50.862;4.696;2022-07-29T03:50:41;17.00;99.90
19870;DHT22;10097;50.862;4.696;2022-07-29T03:53:07;17.00;99.90
19870;DHT22;10097;50.862;4.696;2022-07-29T03:55:37;17.00;99.90
19870;DHT22;10097;50.862;4.696;2022-07-29T03:58:06;16.90;99.90
19870;DHT22;10097;50.862;4.696;2022-07-29T04:00:34;16.90;99.90
19870;DHT22;10097;50.862;4.696;2022-07-29T04:03:00;16.90;99.90
19870;DHT22;10097;50.862;4.696;2022-07-29T04:05:26;16.80;99.90
19870;DHT22;10097;50.862;4.696;2022-07-29T04:07:52;16.80;99.90
19870;DHT22;10097;50.862;4.696;2022-07-29T04:10:18;16.80;99.90
19870;DHT22;10097;50.862;4.696;2022-07-29T04:12:44;16.80;99.90
19870;DHT22;10097;50.862;4.696;2022-07-29T04:15:11;16.80;99.90
19870;DHT22;10097;50.862;4.696;2022-07-29T04:17:37;16.80;99.90
19870;DHT22;10097;50.862;4.696;2022-07-29T04:20:03;16.80;99.90
19870;DHT22;10097;50.862;4.696;2022-07-29T04:22:29;16.80;99.90
19870;DHT22;10097;50.862;4.696;2022-07-29T04:24:55;16.80;99.90
19870;DHT22;10097;50.862;4.696;2022-07-29T04:27:21;16.80;99.90
19870;DHT22;10097;50.862;4.696;2022-07-29T04:29:47;16.80;99.90
19870;DHT22;10097;50.862;4.696;2022-07-29T04:32:13;16.80;99.90
19870;DHT22;10097;50.862;4.696;2022-07-29T04:34:39;16.80;99.90
19870;DHT22;10097;50.862;4.696;2022-07-29T04:37:04;16.80;99.90
19870;DHT22;10097;50.862;4.696;2022-07-29T04:39:30;16.70;99.90
19870;DHT22;10097;50.862;4.696;2022-07-29T04:41:56;16.70;99.90
19870;DHT22;10097;50.862;4.696;2022-07-29T04:44:21;16.60;99.90
19870;DHT22;10097;50.862;4.696;2022-07-29T04:46:47;16.70;99.90
19870;DHT22;10097;50.862;4.696;2022-07-29T04:49:13;16.70;99.90
19870;DHT22;10097;50.862;4.696;2022-07-29T04:51:39;16.80;99.90
19870;DHT22;10097;50.862;4.696;2022-07-29T04:54:05;16.80;99.90
19870;DHT22;10097;50.862;4.696;2022-07-29T04:56:31;16.80;99.90
19870;DHT22;10097;50.862;4.696;2022-07-29T04:58:57;16.80;99.90
19870;DHT22;10097;50.862;4.696;2022-07-29T05:01:22;16.80;99.90
19870;DHT22;10097;50.862;4.696;2022-07-29T05:03:48;16.80;99.90
19870;DHT22;10097;50.862;4.696;2022-07-29T05:06:14;16.90;99.90
19870;DHT22;10097;50.862;4.696;2022-07-29T05:08:39;16.90;99.90
19870;DHT22;10097;50.862;4.696;2022-07-29T05:11:05;17.00;99.90
19870;DHT22;10097;50.862;4.696;2022-07-29T05:13:31;17.00;99.90
19870;DHT22;10097;50.862;4.696;2022-07-29T05:15:57;17.20;99.90
19870;DHT22;10097;50.862;4.696;2022-07-29T05:18:24;17.00;99.90
19870;DHT22;10097;50.862;4.696;2022-07-29T05:20:50;16.90;99.90
19870;DHT22;10097;50.862;4.696;2022-07-29T05:23:16;17.00;99.90
19870;DHT22;10097;50.862;4.696;2022-07-29T05:25:42;17.10;99.90
19870;DHT22;10097;50.862;4.696;2022-07-29T05:28:07;17.20;99.90
19870;DHT22;10097;50.862;4.696;2022-07-29T05:30:33;17.10;99.90
19870;DHT22;10097;50.862;4.696;2022-07-29T05:32:59;17.10;99.90
19870;DHT22;10097;50.862;4.696;2022-07-29T05:35:24;17.10;99.90
19870;DHT22;10097;50.862;4.696;2022-07-29T05:37:50;17.20;99.90
19870;DHT22;10097;50.862;4.696;2022-07-29T05:40:16;17.30;99.90
19870;DHT22;10097;50.862;4.696;2022-07-29T05:42:41;17.40;99.90
19870;DHT22;10097;50.862;4.696;2022-07-29T05:45:08;17.40;99.90
19870;DHT22;10097;50.862;4.696;2022-07-29T05:47:34;17.40;99.90
19870;DHT22;10097;50.862;4.696;2022-07-29T05:49:59;17.50;99.90
19870;DHT22;10097;50.862;4.696;2022-07-29T05:52:25;17.50;99.90
19870;DHT22;10097;50.862;4.696;2022-07-29T05:54:51;17.50;99.90
19870;DHT22;10097;50.862;4.696;2022-07-29T05:57:23;17.60;99.90
19870;DHT22;10097;50.862;4.696;2022-07-29T05:59:49;17.80;99.90
19870;DHT22;10097;50.862;4.696;2022-07-29T06:02:16;17.80;99.90
19870;DHT22;10097;50.862;4.696;2022-07-29T06:04:42;17.80;99.90
19870;DHT22;10097;50.862;4.696;2022-07-29T06:07:08;17.80;99.90
19870;DHT22;10097;50.862;4.696;2022-07-29T06:09:34;17.90;99.90
19870;DHT22;10097;50.862;4.696;2022-07-29T06:12:00;17.90;99.90
19870;DHT22;10097;50.862;4.696;2022-07-29T06:14:26;17.70;99.90
19870;DHT22;10097;50.862;4.696;2022-07-29T06:16:52;17.70;99.90
19870;DHT22;10097;50.862;4.696;2022-07-29T06:19:18;17.80;99.90
19870;DHT22;10097;50.862;4.696;2022-07-29T06:21:45;17.90;99.90
19870;DHT22;10097;50.862;4.696;2022-07-29T06:24:12;17.90;99.90
19870;DHT22;10097;50.862;4.696;2022-07-29T06:26:39;18.00;99.90
19870;DHT22;10097;50.862;4.696;2022-07-29T06:29:06;18.00;99.90
19870;DHT22;10097;50.862;4.696;2022-07-29T06:31:31;18.10;99.90
19870;DHT22;10097;50.862;4.696;2022-07-29T06:33:57;18.20;99.90
19870;DHT22;10097;50.862;4.696;2022-07-29T06:36:23;18.20;99.90
19870;DHT22;10097;50.862;4.696;2022-07-29T06:38:48;18.30;99.90
19870;DHT22;10097;50.862;4.696;2022-07-29T06:41:14;18.40;99.90
19870;DHT22;10097;50.862;4.696;2022-07-29T06:43:43;18.40;99.90
19870;DHT22;10097;50.862;4.696;2022-07-29T06:46:12;18.40;99.90
19870;DHT22;10097;50.862;4.696;2022-07-29T06:48:39;18.40;99.90
19870;DHT22;10097;50.862;4.696;2022-07-29T06:51:06;18.40;99.90
19870;DHT22;10097;50.862;4.696;2022-07-29T06:53:32;18.60;99.90
19870;DHT22;10097;50.862;4.696;2022-07-29T06:55:59;18.70;99.90
19870;DHT22;10097;50.862;4.696;2022-07-29T06:58:29;18.70;99.90
19870;DHT22;10097;50.862;4.696;2022-07-29T07:00:58;18.70;99.90
19870;DHT22;10097;50.862;4.696;2022-07-29T07:03:24;18.90;99.90
19870;DHT22;10097;50.862;4.696;2022-07-29T07:05:51;19.10;99.90
19870;DHT22;10097;50.862;4.696;2022-07-29T07:08:17;19.10;99.90
19870;DHT22;10097;50.862;4.696;2022-07-29T07:10:43;19.00;99.90
19870;DHT22;10097;50.862;4.696;2022-07-29T07:13:09;19.10;99.90
19870;DHT22;10097;50.862;4.696;2022-07-29T07:15:37;19.10;99.90
19870;DHT22;10097;50.862;4.696;2022-07-29T07:18:03;19.20;99.90
19870;DHT22;10097;50.862;4.696;2022-07-29T07:20:29;19.30;99.90
19870;DHT22;10097;50.862;4.696;2022-07-29T07:22:54;19.30;99.90
19870;DHT22;10097;50.862;4.696;2022-07-29T07:25:20;19.20;99.90
19870;DHT22;10097;50.862;4.696;2022-07-29T07:27:46;19.20;99.90
19870;DHT22;10097;50.862;4.696;2022-07-29T07:30:12;19.20;99.90
19870;DHT22;10097;50.862;4.696;2022-07-29T07:32:38;19.40;99.90
19870;DHT22;10097;50.862;4.696;2022-07-29T07:35:06;19.40;99.90
19870;DHT22;10097;50.862;4.696;2022-07-29T07:37:32;19.50;99.90
19870;DHT22;10097;50.862;4.696;2022-07-29T07:39:58;19.60;99.90
19870;DHT22;10097;50.862;4.696;2022-07-29T07:42:24;19.60;99.90
19870;DHT22;10097;50.862;4.696;2022-07-29T07:44:50;19.60;99.90
19870;DHT22;10097;50.862;4.696;2022-07-29T07:47:15;19.90;99.90
19870;DHT22;10097;50.862;4.696;2022-07-29T07:49:51;19.90;99.90
19870;DHT22;10097;50.862;4.696;2022-07-29T07:52:19;20.00;99.90
19870;DHT22;10097;50.862;4.696;2022-07-29T07:54:45;19.90;99.90
19870;DHT22;10097;50.862;4.696;2022-07-29T07:57:11;19.90;99.90
19870;DHT22;10097;50.862;4.696;2022-07-29T07:59:38;20.00;99.90
19870;DHT22;10097;50.862;4.696;2022-07-29T08:02:04;20.20;99.90
19870;DHT22;10097;50.862;4.696;2022-07-29T08:04:30;20.20;99.90
19870;DHT22;10097;50.862;4.696;2022-07-29T08:06:57;20.20;99.90
19870;DHT22;10097;50.862;4.696;2022-07-29T08:09:24;20.30;99.90
19870;DHT22;10097;50.862;4.696;2022-07-29T08:11:51;20.30;99.90
19870;DHT22;10097;50.862;4.696;2022-07-29T08:14:17;20.40;99.90
19870;DHT22;10097;50.862;4.696;2022-07-29T08:16:43;20.40;99.90
19870;DHT22;10097;50.862;4.696;2022-07-29T08:19:09;20.60;99.90
19870;DHT22;10097;50.862;4.696;2022-07-29T08:21:35;20.70;99.90
19870;DHT22;10097;50.862;4.696;2022-07-29T08:24:01;20.80;99.90
19870;DHT22;10097;50.862;4.696;2022-07-29T08:26:45;20.80;99.90
19870;DHT22;10097;50.862;4.696;2022-07-29T08:29:11;20.90;99.90
19870;DHT22;10097;50.862;4.696;2022-07-29T08:31:37;21.00;99.90
19870;DHT22;10097;50.862;4.696;2022-07-29T08:34:04;21.10;99.90
19870;DHT22;10097;50.862;4.696;2022-07-29T08:36:30;21.20;99.90
19870;DHT22;10097;50.862;4.696;2022-07-29T08:38:56;21.40;99.90
19870;DHT22;10097;50.862;4.696;2022-07-29T08:41:22;21.60;99.90
19870;DHT22;10097;50.862;4.696;2022-07-29T08:43:49;21.70;99.90
19870;DHT22;10097;50.862;4.696;2022-07-29T08:46:16;21.70;99.90
19870;DHT22;10097;50.862;4.696;2022-07-29T08:48:45;21.70;99.90
19870;DHT22;10097;50.862;4.696;2022-07-29T08:51:19;21.80;99.90
19870;DHT22;10097;50.862;4.696;2022-07-29T08:53:49;21.90;99.90
19870;DHT22;10097;50.862;4.696;2022-07-29T08:56:16;22.00;99.90
19870;DHT22;10097;50.862;4.696;2022-07-29T08:58:44;22.10;99.90
19870;DHT22;10097;50.862;4.696;2022-07-29T09:01:11;22.10;99.90
19870;DHT22;10097;50.862;4.696;2022-07-29T09:03:38;22.10;99.90
19870;DHT22;10097;50.862;4.696;2022-07-29T09:06:05;22.20;99.90
19870;DHT22;10097;50.862;4.696;2022-07-29T09:08:32;22.30;99.90
19870;DHT22;10097;50.862;4.696;2022-07-29T09:10:58;22.50;99.90
19870;DHT22;10097;50.862;4.696;2022-07-29T09:13:25;22.70;99.90
19870;DHT22;10097;50.862;4.696;2022-07-29T09:15:51;22.90;99.90
19870;DHT22;10097;50.862;4.696;2022-07-29T09:18:40;22.80;99.90
19870;DHT22;10097;50.862;4.696;2022-07-29T09:21:08;22.90;99.90
19870;DHT22;10097;50.862;4.696;2022-07-29T09:24:11;22.80;99.90
19870;DHT22;10097;50.862;4.696;2022-07-29T09:26:40;23.00;99.90
19870;DHT22;10097;50.862;4.696;2022-07-29T09:29:18;23.20;99.90
19870;DHT22;10097;50.862;4.696;2022-07-29T09:31:48;23.20;99.90
19870;DHT22;10097;50.862;4.696;2022-07-29T09:34:26;23.30;99.90
19870;DHT22;10097;50.862;4.696;2022-07-29T09:36:53;23.30;99.90
19870;DHT22;10097;50.862;4.696;2022-07-29T09:39:37;23.30;99.90
19870;DHT22;10097;50.862;4.696;2022-07-29T09:42:06;23.50;99.90
19870;DHT22;10097;50.862;4.696;2022-07-29T09:44:48;23.40;99.90
19870;DHT22;10097;50.862;4.696;2022-07-29T09:47:15;23.30;99.90
19870;DHT22;10097;50.862;4.696;2022-07-29T09:49:54;23.50;99.90
19870;DHT22;10097;50.862;4.696;2022-07-29T09:52:20;23.60;99.90
19870;DHT22;10097;50.862;4.696;2022-07-29T09:54:46;23.60;99.90
19870;DHT22;10097;50.862;4.696;2022-07-29T09:57:38;23.80;99.90
19870;DHT22;10097;50.862;4.696;2022-07-29T10:00:09;23.80;99.90
19870;DHT22;10097;50.862;4.696;2022-07-29T10:02:37;24.00;99.90
19870;DHT22;10097;50.862;4.696;2022-07-29T10:05:05;24.00;99.90
19870;DHT22;10097;50.862;4.696;2022-07-29T10:07:46;24.00;99.90
19870;DHT22;10097;50.862;4.696;2022-07-29T10:10:19;24.20;99.90
19870;DHT22;10097;50.862;4.696;2022-07-29T10:12:53;24.20;99.90
19870;DHT22;10097;50.862;4.696;2022-07-29T10:15:22;24.20;99.90
19870;DHT22;10097;50.862;4.696;2022-07-29T10:17:48;24.30;99.90
19870;DHT22;10097;50.862;4.696;2022-07-29T10:20:15;24.40;99.90
19870;DHT22;10097;50.862;4.696;2022-07-29T10:22:41;24.60;99.90
19870;DHT22;10097;50.862;4.696;2022-07-29T10:25:08;24.60;99.90
19870;DHT22;10097;50.862;4.696;2022-07-29T10:27:35;24.70;99.90
19870;DHT22;10097;50.862;4.696;2022-07-29T10:30:01;24.80;99.90
19870;DHT22;10097;50.862;4.696;2022-07-29T10:38:27;25.10;99.90
19870;DHT22;10097;50.862;4.696;2022-07-29T10:41:08;25.20;99.90
19870;DHT22;10097;50.862;4.696;2022-07-29T10:44:02;25.30;99.90
19870;DHT22;10097;50.862;4.696;2022-07-29T10:46:38;25.60;99.90
19870;DHT22;10097;50.862;4.696;2022-07-29T10:49:08;25.80;99.90
19870;DHT22;10097;50.862;4.696;2022-07-29T10:59:38;26.10;99.90
19870;DHT22;10097;50.862;4.696;2022-07-29T11:05:19;26.50;99.90
19870;DHT22;10097;50.862;4.696;2022-07-29T11:10:40;26.90;99.90
19870;DHT22;10097;50.862;4.696;2022-07-29T11:13:06;27.20;99.90
19870;DHT22;10097;50.862;4.696;2022-07-29T11:15:54;27.10;99.90
19870;DHT22;10097;50.862;4.696;2022-07-29T11:18:20;27.60;99.90
19870;DHT22;10097;50.862;4.696;2022-07-29T11:20:47;28.10;99.90
19870;DHT22;10097;50.862;4.696;2022-07-29T11:25:45;28.80;99.90
19870;DHT22;10097;50.862;4.696;2022-07-29T11:28:34;29.30;99.90
19870;DHT22;10097;50.862;4.696;2022-07-29T11:31:01;30.40;99.90
19870;DHT22;10097;50.862;4.696;2022-07-29T11:33:31;30.80;99.90
19870;DHT22;10097;50.862;4.696;2022-07-29T11:36:11;30.80;99.90
19870;DHT22;10097;50.862;4.696;2022-07-29T11:38:38;31.00;99.90
19870;DHT22;10097;50.862;4.696;2022-07-29T11:41:26;31.00;99.90
19870;DHT22;10097;50.862;4.696;2022-07-29T11:43:56;31.10;99.90
19870;DHT22;10097;50.862;4.696;2022-07-29T11:46:48;31.20;99.90
19870;DHT22;10097;50.862;4.696;2022-07-29T11:49:25;30.80;99.90
19870;DHT22;10097;50.862;4.696;2022-07-29T11:51:55;30.10;99.90
19870;DHT22;10097;50.862;4.696;2022-07-29T11:54:26;30.50;99.90
19870;DHT22;10097;50.862;4.696;2022-07-29T11:56:52;30.00;99.90
19870;DHT22;10097;50.862;4.696;2022-07-29T11:59:19;29.70;99.90
19870;DHT22;10097;50.862;4.696;2022-07-29T12:01:58;29.60;99.90
19870;DHT22;10097;50.862;4.696;2022-07-29T12:04:24;29.10;99.90
19870;DHT22;10097;50.862;4.696;2022-07-29T12:06:53;29.10;99.90
19870;DHT22;10097;50.862;4.696;2022-07-29T12:09:20;29.20;99.90
19870;DHT22;10097;50.862;4.696;2022-07-29T12:11:47;29.30;99.90
19870;DHT22;10097;50.862;4.696;2022-07-29T12:14:30;29.70;99.90
19870;DHT22;10097;50.862;4.696;2022-07-29T12:16:56;29.80;99.90
19870;DHT22;10097;50.862;4.696;2022-07-29T12:19:22;30.00;99.90
19870;DHT22;10097;50.862;4.696;2022-07-29T12:21:50;30.30;99.90
19870;DHT22;10097;50.862;4.696;2022-07-29T12:24:17;30.30;99.90
19870;DHT22;10097;50.862;4.696;2022-07-29T12:26:51;30.40;99.50
19870;DHT22;10097;50.862;4.696;2022-07-29T12:29:18;31.50;98.20
19870;DHT22;10097;50.862;4.696;2022-07-29T12:31:44;32.00;97.40
19870;DHT22;10097;50.862;4.696;2022-07-29T12:34:15;31.90;96.50
19870;DHT22;10097;50.862;4.696;2022-07-29T12:36:42;32.20;95.60
19870;DHT22;10097;50.862;4.696;2022-07-29T12:39:09;32.50;94.10
19870;DHT22;10097;50.862;4.696;2022-07-29T12:41:35;32.10;94.20
19870;DHT22;10097;50.862;4.696;2022-07-29T12:44:01;31.80;94.00
19870;DHT22;10097;50.862;4.696;2022-07-29T12:46:27;32.00;93.40
19870;DHT22;10097;50.862;4.696;2022-07-29T12:48:54;31.90;93.80
19870;DHT22;10097;50.862;4.696;2022-07-29T12:51:29;31.50;93.80
19870;DHT22;10097;50.862;4.696;2022-07-29T12:54:10;31.50;93.90
19870;DHT22;10097;50.862;4.696;2022-07-29T12:56:40;30.90;94.00
19870;DHT22;10097;50.862;4.696;2022-07-29T12:59:16;30.70;94.40
19870;DHT22;10097;50.862;4.696;2022-07-29T13:01:43;31.50;94.00
19870;DHT22;10097;50.862;4.696;2022-07-29T13:04:09;32.30;93.60
19870;DHT22;10097;50.862;4.696;2022-07-29T13:09:12;31.20;93.00
19870;DHT22;10097;50.862;4.696;2022-07-29T13:11:47;30.80;93.10
19870;DHT22;10097;50.862;4.696;2022-07-29T13:14:34;31.30;94.00
19870;DHT22;10097;50.862;4.696;2022-07-29T13:17:17;31.10;92.90
19870;DHT22;10097;50.862;4.696;2022-07-29T13:19:45;30.90;93.80
19870;DHT22;10097;50.862;4.696;2022-07-29T13:22:14;30.80;93.10
19870;DHT22;10097;50.862;4.696;2022-07-29T13:24:51;30.90;92.60
19870;DHT22;10097;50.862;4.696;2022-07-29T13:27:19;31.40;92.20
19870;DHT22;10097;50.862;4.696;2022-07-29T13:29:45;32.00;91.40
19870;DHT22;10097;50.862;4.696;2022-07-29T13:32:11;32.70;90.30
19870;DHT22;10097;50.862;4.696;2022-07-29T13:34:37;32.60;90.40
19870;DHT22;10097;50.862;4.696;2022-07-29T13:37:03;32.30;90.00
19870;DHT22;10097;50.862;4.696;2022-07-29T13:39:28;32.60;89.80
19870;DHT22;10097;50.862;4.696;2022-07-29T13:41:55;32.70;88.00
19870;DHT22;10097;50.862;4.696;2022-07-29T13:44:21;32.40;87.20
19870;DHT22;10097;50.862;4.696;2022-07-29T13:46:47;32.10;87.20
19870;DHT22;10097;50.862;4.696;2022-07-29T13:49:12;32.00;86.00
19870;DHT22;10097;50.862;4.696;2022-07-29T13:51:38;32.20;87.00
19870;DHT22;10097;50.862;4.696;2022-07-29T13:54:04;32.20;85.50
19870;DHT22;10097;50.862;4.696;2022-07-29T13:56:30;31.50;86.30
19870;DHT22;10097;50.862;4.696;2022-07-29T13:58:56;31.10;87.70
19870;DHT22;10097;50.862;4.696;2022-07-29T14:01:23;31.50;88.10
19870;DHT22;10097;50.862;4.696;2022-07-29T14:03:49;32.30;85.90
19870;DHT22;10097;50.862;4.696;2022-07-29T14:06:14;32.00;84.90
19870;DHT22;10097;50.862;4.696;2022-07-29T14:08:40;31.80;85.80
19870;DHT22;10097;50.862;4.696;2022-07-29T14:11:06;31.60;88.30
19870;DHT22;10097;50.862;4.696;2022-07-29T14:13:32;31.30;86.20
19870;DHT22;10097;50.862;4.696;2022-07-29T14:15:58;30.70;88.60
19870;DHT22;10097;50.862;4.696;2022-07-29T14:18:23;30.10;89.80
19870;DHT22;10097;50.862;4.696;2022-07-29T14:20:49;29.90;90.40
19870;DHT22;10097;50.862;4.696;2022-07-29T14:23:16;29.80;90.50
19870;DHT22;10097;50.862;4.696;2022-07-29T14:25:42;29.90;90.80
19870;DHT22;10097;50.862;4.696;2022-07-29T14:28:08;29.70;91.20
19870;DHT22;10097;50.862;4.696;2022-07-29T14:30:34;29.50;91.40
19870;DHT22;10097;50.862;4.696;2022-07-29T14:32:59;29.10;91.80
19870;DHT22;10097;50.862;4.696;2022-07-29T14:35:25;28.60;92.30
19870;DHT22;10097;50.862;4.696;2022-07-29T14:37:51;28.30;92.80
19870;DHT22;10097;50.862;4.696;2022-07-29T14:40:16;27.70;93.10
19870;DHT22;10097;50.862;4.696;2022-07-29T14:42:42;27.70;94.00
19870;DHT22;10097;50.862;4.696;2022-07-29T14:45:09;27.90;94.20
19870;DHT22;10097;50.862;4.696;2022-07-29T14:47:35;27.90;93.70
19870;DHT22;10097;50.862;4.696;2022-07-29T14:50:02;27.70;93.60
19870;DHT22;10097;50.862;4.696;2022-07-29T14:52:28;27.60;94.20
19870;DHT22;10097;50.862;4.696;2022-07-29T14:54:53;27.70;94.10
19870;DHT22;10097;50.862;4.696;2022-07-29T14:57:19;28.00;93.80
19870;DHT22;10097;50.862;4.696;2022-07-29T14:59:45;28.10;93.20
19870;DHT22;10097;50.862;4.696;2022-07-29T15:02:10;28.10;93.30
19870;DHT22;10097;50.862;4.696;2022-07-29T15:04:36;28.30;93.20
19870;DHT22;10097;50.862;4.696;2022-07-29T15:07:02;29.40;93.30
19870;DHT22;10097;50.862;4.696;2022-07-29T15:09:31;30.70;92.20
19870;DHT22;10097;50.862;4.696;2022-07-29T15:11:56;31.40;90.20
19870;DHT22;10097;50.862;4.696;2022-07-29T15:14:22;32.10;88.90
19870;DHT22;10097;50.862;4.696;2022-07-29T15:16:48;31.80;87.50
19870;DHT22;10097;50.862;4.696;2022-07-29T15:19:13;31.60;86.40
19870;DHT22;10097;50.862;4.696;2022-07-29T15:21:39;31.70;87.20
19870;DHT22;10097;50.862;4.696;2022-07-29T15:24:05;31.50;86.00
19870;DHT22;10097;50.862;4.696;2022-07-29T15:26:32;30.50;87.50
19870;DHT22;10097;50.862;4.696;2022-07-29T15:28:58;30.50;88.00
19870;DHT22;10097;50.862;4.696;2022-07-29T15:31:23;30.90;86.90
19870;DHT22;10097;50.862;4.696;2022-07-29T15:33:49;31.10;85.60
19870;DHT22;10097;50.862;4.696;2022-07-29T15:36:15;31.50;84.70
19870;DHT22;10097;50.862;4.696;2022-07-29T15:38:40;32.20;84.00
19870;DHT22;10097;50.862;4.696;2022-07-29T15:41:09;32.30;83.00
19870;DHT22;10097;50.862;4.696;2022-07-29T15:43:44;32.30;80.60
19870;DHT22;10097;50.862;4.696;2022-07-29T15:46:14;32.20;80.70
19870;DHT22;10097;50.862;4.696;2022-07-29T15:48:58;32.60;81.10
19870;DHT22;10097;50.862;4.696;2022-07-29T15:51:24;32.70;78.70
19870;DHT22;10097;50.862;4.696;2022-07-29T15:53:49;33.00;77.60
19870;DHT22;10097;50.862;4.696;2022-07-29T15:56:15;32.80;76.90
19870;DHT22;10097;50.862;4.696;2022-07-29T15:58:41;33.00;76.00
19870;DHT22;10097;50.862;4.696;2022-07-29T16:01:06;33.20;76.50
19870;DHT22;10097;50.862;4.696;2022-07-29T16:03:32;33.10;76.10
19870;DHT22;10097;50.862;4.696;2022-07-29T16:06:04;33.20;75.00
19870;DHT22;10097;50.862;4.696;2022-07-29T16:08:30;33.90;73.30
19870;DHT22;10097;50.862;4.696;2022-07-29T16:10:55;34.60;72.20
19870;DHT22;10097;50.862;4.696;2022-07-29T16:13:21;34.90;71.20